Time;durP1;ratioP1;P1;durP2;ratioP2;P2;SDS_P1;SDS_P2;PMS_P1;PMS_P2;Temp;Humidity;BMP_temperature;BMP_pressure;BME280_temperature;BME280_humidity;BME280_pressure;Samples;Min_cycle;Max_cycle;Signal;HPM_P1;HPM_P2
2021/05/27 00:01:00;;;;;;;0.17;0.17;;;10.80;75.10;;;13.98;60.41;101193.44;5004310;28;97030;-67
2021/05/27 00:03:31;;;;;;;0.10;0.10;;;10.80;75.10;;;14.01;60.24;101200.91;4998243;28;96975;-67
2021/05/27 00:05:59;;;;;;;0.22;0.22;;;10.80;75.20;;;13.99;60.34;101187.75;4985009;28;97295;-67
2021/05/27 00:08:30;;;;;;;0.20;0.20;;;10.80;75.20;;;14.00;60.18;101189.34;4987689;28;96691;-67
2021/05/27 00:11:12;;;;;;;0.30;0.30;;;10.80;75.10;;;13.98;60.40;101193.44;4990328;28;96976;-67
2021/05/27 00:13:41;;;;;;;0.10;0.10;;;10.80;75.10;;;13.92;60.67;101198.16;4986837;28;98070;-67
2021/05/27 00:16:09;;;;;;;0.52;0.52;;;10.70;75.10;;;13.91;60.44;101193.91;4985690;28;97698;-67
2021/05/27 00:18:51;;;;;;;0.43;0.43;;;10.70;75.10;;;13.89;60.62;101195.31;4988257;28;96917;-67
2021/05/27 00:21:20;;;;;;;1.20;0.70;;;10.80;75.20;;;13.86;60.36;101193.25;4986577;28;96847;-67
2021/05/27 00:23:48;;;;;;;0.43;0.43;;;10.70;75.20;;;13.84;60.79;101198.16;4984519;28;96847;-67
2021/05/27 00:26:17;;;;;;;0.22;0.22;;;10.70;75.20;;;13.84;60.86;101204.34;4987574;28;100729;-67
2021/05/27 00:28:50;;;;;;;;;;;10.70;75.20;;;13.85;60.61;101207.84;4988811;28;97471;-67
2021/05/27 00:31:18;;;;;;;0.50;0.40;;;10.70;75.30;;;13.84;60.70;101211.63;4986177;28;97266;-68
2021/05/27 00:33:47;;;;;;;0.65;0.40;;;10.70;75.30;;;13.85;60.58;101205.13;4988138;28;97531;-67
2021/05/27 00:36:15;;;;;;;0.80;0.38;;;10.70;75.30;;;13.82;60.56;101205.75;4984936;28;96925;-67
2021/05/27 00:38:43;;;;;;;1.20;0.30;;;10.70;75.30;;;13.80;60.51;101206.06;4987193;28;98128;-67
2021/05/27 00:41:12;;;;;;;0.55;0.52;;;10.70;75.30;;;13.76;60.86;101209.69;4988298;28;100350;-67
2021/05/27 00:43:40;;;;;;;0.10;0.10;;;10.70;75.30;;;13.71;60.56;101207.94;4986265;28;98132;-67
2021/05/27 00:46:08;;;;;;;1.35;0.47;;;10.60;75.30;;;13.72;60.80;101212.22;4990129;28;97878;-67
2021/05/27 00:51:24;;;;;;;6.93;0.65;;;10.60;75.30;;;13.67;60.84;101211.56;4985970;28;97413;-67
2021/05/27 00:53:52;;;;;;;0.10;0.10;;;10.60;75.40;;;13.59;60.76;101215.00;4984058;28;98906;-67
2021/05/27 00:56:21;;;;;;;0.80;0.50;;;10.60;75.30;;;13.69;60.77;101214.72;4986497;28;97035;-67
2021/05/27 00:58:50;;;;;;;0.17;0.17;;;10.60;75.40;;;13.72;60.61;101222.19;4984618;28;96902;-67
2021/05/27 01:01:18;;;;;;;0.70;0.63;;;10.60;75.40;;;13.68;60.88;101216.63;4984208;28;96890;-67
2021/05/27 01:03:47;;;;;;;0.10;0.10;;;10.50;75.40;;;13.66;60.72;101218.84;4983727;28;96878;-67
2021/05/27 01:06:15;;;;;;;0.10;0.10;;;10.50;75.40;;;13.67;60.95;101212.34;4980396;28;97714;-67
2021/05/27 01:08:44;;;;;;;0.10;0.10;;;10.50;75.40;;;13.71;60.17;101217.91;4988109;28;97257;-67
2021/05/27 01:11:15;;;;;;;0.30;0.22;;;10.50;75.40;;;13.64;60.68;101215.66;4983356;28;96744;-67
2021/05/27 01:13:45;;;;;;;0.10;0.10;;;10.50;75.40;;;13.64;60.57;101214.88;4986632;28;97858;-67
2021/05/27 01:16:15;;;;;;;0.47;0.47;;;10.50;75.40;;;13.63;60.84;101224.06;4985997;28;98233;-67
2021/05/27 01:18:44;;;;;;;0.10;0.10;;;10.50;75.40;;;13.66;60.63;101226.13;4983995;28;96924;-67
2021/05/27 01:21:13;;;;;;;0.20;0.20;;;10.50;75.40;;;13.65;61.00;101225.31;4987678;28;96898;-67
2021/05/27 01:23:44;;;;;;;0.17;0.17;;;10.50;75.40;;;13.63;60.64;101210.59;4982162;28;98216;-67
2021/05/27 01:26:12;;;;;;;3.50;0.95;;;10.40;75.40;;;13.61;60.52;101216.25;4986947;28;96755;-67
2021/05/27 01:28:41;;;;;;;0.10;0.10;;;10.40;75.40;;;13.66;60.53;101223.44;4984057;28;96976;-67
2021/05/27 01:31:11;;;;;;;0.28;0.28;;;10.50;75.50;;;13.63;60.80;101215.97;4987731;28;97039;-67
2021/05/27 01:33:40;;;;;;;1.45;0.50;;;10.50;75.50;;;13.62;60.80;101219.78;4983261;28;97997;-67
2021/05/27 01:36:10;;;;;;;0.30;0.30;;;10.40;75.40;;;13.61;60.73;101226.25;4985347;28;96805;-68
2021/05/27 01:38:39;;;;;;;0.73;0.70;;;10.50;75.50;;;13.64;60.64;101233.72;5011390;28;96898;-67
2021/05/27 01:41:12;;;;;;;1.02;0.75;;;10.40;75.50;;;13.65;60.86;101235.31;5002680;28;97466;-67
2021/05/27 01:43:40;;;;;;;0.10;0.10;;;10.40;75.50;;;13.66;60.69;101242.28;4986267;28;98129;-67
2021/05/27 01:46:09;;;;;;;0.85;0.75;;;10.40;75.50;;;13.67;60.53;101238.47;4988852;28;97698;-67
2021/05/27 01:48:39;;;;;;;0.20;0.20;;;10.40;75.60;;;13.60;60.66;101230.06;4986251;28;97353;-67
2021/05/27 01:51:08;;;;;;;0.30;0.17;;;10.40;75.50;;;13.55;60.97;101232.88;4983673;28;99439;-67
2021/05/27 01:53:37;;;;;;;0.00;0.00;;;10.40;75.50;;;13.57;60.82;101228.75;4982901;28;98081;-67
2021/05/27 01:56:07;;;;;;;0.00;0.00;;;10.40;75.60;;;13.60;60.87;101232.75;4983810;28;97645;-67
2021/05/27 01:58:38;;;;;;;0.28;0.28;;;10.40;75.50;;;13.54;60.66;101237.47;4985459;28;97502;-68
2021/05/27 02:01:08;;;;;;;0.30;0.30;;;10.40;75.60;;;13.52;61.27;101239.66;5001439;28;96835;-67
2021/05/27 02:03:42;;;;;;;0.75;0.47;;;10.40;75.60;;;13.51;60.98;101231.88;4985999;28;98007;-67
2021/05/27 02:06:16;;;;;;;0.25;0.25;;;10.40;75.60;;;13.54;60.64;101242.06;4982548;28;96976;-67
2021/05/27 02:09:09;;;;;;;0.32;0.32;;;10.40;75.60;;;13.52;61.05;101247.75;5016700;27;96776;-67
2021/05/27 02:11:55;;;;;;;0.32;0.32;;;10.40;75.60;;;13.58;60.46;101245.72;5001267;28;97017;-67
2021/05/27 02:14:24;;;;;;;0.00;0.00;;;10.40;75.60;;;13.59;60.75;101245.41;4986369;28;97419;-67
2021/05/27 02:16:53;;;;;;;2.03;0.82;;;10.30;75.60;;;13.58;60.44;101243.03;5002651;28;96906;-67
2021/05/27 02:19:21;;;;;;;0.52;0.40;;;10.30;75.60;;;13.58;60.23;101245.72;4992312;28;96866;-67
2021/05/27 02:21:51;;;;;;;0.43;0.43;;;10.30;75.70;;;13.54;60.78;101245.53;4989366;28;97734;-67
2021/05/27 02:24:26;;;;;;;1.75;1.23;;;10.30;75.60;;;13.52;60.88;101238.88;4970650;28;97879;-68
2021/05/27 02:26:55;;;;;;;0.28;0.28;;;10.30;75.70;;;13.56;60.56;101242.56;4988478;28;98039;-69
2021/05/27 02:29:24;;;;;;;0.75;0.68;;;10.30;75.70;;;13.57;60.66;101239.53;4988547;28;96934;-67
2021/05/27 02:31:56;;;;;;;0.10;0.10;;;10.30;75.70;;;13.45;60.94;101243.91;4989548;28;96923;-67
2021/05/27 02:34:25;;;;;;;0.10;0.10;;;10.30;75.70;;;13.48;60.34;101249.47;4988995;28;98200;-67
2021/05/27 02:36:57;;;;;;;0.00;0.00;;;10.30;75.70;;;13.42;60.99;101244.50;4988060;28;98441;-67
2021/05/27 02:39:27;;;;;;;0.00;0.00;;;10.30;75.70;;;13.42;60.56;101248.00;4990176;28;98051;-67
2021/05/27 02:41:58;;;;;;;0.25;0.25;;;10.30;75.80;;;13.49;60.81;101255.63;5003448;28;97155;-67
2021/05/27 02:44:31;;;;;;;0.30;0.30;;;10.30;75.70;;;13.42;61.07;101250.72;5008942;28;97861;-68
2021/05/27 02:47:00;;;;;;;0.70;0.70;;;10.30;75.80;;;13.41;60.88;101251.00;5004811;28;98234;-67
2021/05/27 02:49:33;;;;;;;0.10;0.10;;;10.20;75.70;;;13.41;61.22;101248.31;4985461;28;96992;-67
2021/05/27 02:52:05;;;;;;;1.77;0.40;;;10.30;75.80;;;13.41;61.14;101256.38;4985774;28;97464;-67
2021/05/27 02:54:35;;;;;;;2.17;1.40;;;10.20;75.70;;;13.39;60.85;101256.69;4971866;28;99376;-68
2021/05/27 02:57:05;;;;;;;0.30;0.30;;;10.20;75.80;;;13.34;61.03;101253.34;4986638;28;96795;-67
2021/05/27 02:59:36;;;;;;;0.50;0.50;;;10.20;75.80;;;13.33;61.07;101271.38;5019573;28;97550;-67
2021/05/27 03:02:06;;;;;;;1.52;0.95;;;10.30;76.50;;;13.38;61.32;101259.69;4973492;28;97520;-67
2021/05/27 03:04:37;;;;;;;0.30;0.20;;;10.30;75.90;;;13.40;60.68;101263.69;4967808;28;98947;-67
2021/05/27 03:07:11;;;;;;;0.17;0.17;;;10.20;75.80;;;13.48;60.76;101262.13;5005607;28;96843;-67
2021/05/27 03:09:39;;;;;;;0.85;0.32;;;10.20;75.80;;;13.45;60.88;101273.50;4988378;28;96798;-67
2021/05/27 03:12:08;;;;;;;0.25;0.25;;;10.30;75.90;;;13.44;60.90;101261.16;4987314;28;98249;-67
2021/05/27 03:14:38;;;;;;;0.10;0.10;;;10.20;75.80;;;13.47;60.88;101265.91;4987136;28;98739;-67
2021/05/27 03:17:10;;;;;;;3.40;0.82;;;10.20;75.80;;;13.48;60.50;101264.81;4971418;28;98211;-67
2021/05/27 03:19:39;;;;;;;1.17;0.63;;;10.20;75.80;;;13.48;60.88;101267.50;4983605;28;96888;-67
2021/05/27 03:22:07;;;;;;;0.30;0.30;;;10.20;75.80;;;13.51;60.44;101278.47;5002314;28;97628;-67
2021/05/27 03:24:38;;;;;;;0.00;0.00;;;10.20;75.90;;;13.52;60.92;101276.59;4986849;28;98204;-67
2021/05/27 03:27:09;;;;;;;0.00;0.00;;;10.20;75.90;;;13.54;60.74;101277.84;5020000;28;97244;-67
2021/05/27 03:29:38;;;;;;;0.82;0.68;;;10.20;75.90;;;13.58;60.32;101272.66;4986255;28;96890;-67
2021/05/27 03:32:07;;;;;;;0.30;0.30;;;10.20;75.90;;;13.57;60.66;101279.13;4988637;28;96901;-67
2021/05/27 03:34:37;;;;;;;0.10;0.10;;;10.20;75.90;;;13.56;60.49;101275.63;4987283;28;96946;-68
2021/05/27 03:37:05;;;;;;;0.77;0.30;;;10.20;75.90;;;13.54;60.41;101271.69;4992701;28;98202;-67
2021/05/27 03:39:34;;;;;;;0.20;0.20;;;10.30;76.70;;;13.54;60.85;101277.84;4988793;28;96844;-67
2021/05/27 03:42:06;;;;;;;3.22;1.38;;;10.20;75.90;;;13.52;60.64;101279.28;4969198;28;97154;-67
2021/05/27 03:44:38;;;;;;;0.85;0.82;;;10.30;76.00;;;13.63;60.72;101280.59;4984390;28;97833;-67
2021/05/27 03:47:10;;;;;;;1.45;0.77;;;10.20;75.80;;;13.62;60.52;101273.63;4966114;28;96832;-67
2021/05/27 03:49:39;;;;;;;0.00;0.00;;;10.30;76.00;;;13.65;59.98;101281.06;4988121;28;97124;-67
2021/05/27 03:52:11;;;;;;;0.00;0.00;;;10.20;75.90;;;13.69;60.25;101287.44;4988494;28;97089;-67
2021/05/27 03:54:39;;;;;;;0.10;0.10;;;10.20;75.90;;;13.68;60.25;101286.66;5016694;27;96955;-67
2021/05/27 03:57:09;;;;;;;0.45;0.32;;;10.30;76.00;;;13.66;60.02;101283.47;5008222;28;97669;-67
2021/05/27 04:02:43;;;;;;;0.43;0.43;;;10.30;76.00;;;13.64;59.93;101291.03;4986860;28;97298;-67
2021/05/27 04:08:13;;;;;;;0.55;0.43;;;10.30;76.00;;;13.71;60.48;101288.72;4988104;28;101554;-67
2021/05/27 04:10:41;;;;;;;1.75;1.20;;;10.30;76.00;;;13.74;60.17;101284.59;5018238;28;96921;-67
2021/05/27 04:13:09;;;;;;;0.10;0.10;;;10.30;76.00;;;13.72;60.38;101294.91;4986897;28;97217;-67
2021/05/27 04:15:40;;;;;;;0.40;0.35;;;10.30;76.00;;;13.70;59.98;101287.13;4984611;28;97869;-67
2021/05/27 04:18:13;;;;;;;7.97;1.60;;;10.30;76.00;;;13.69;60.31;101290.13;4986429;28;97662;-67
2021/05/27 04:20:46;;;;;;;0.25;0.25;;;10.30;76.00;;;13.69;60.62;101295.50;4990401;28;96867;-67
2021/05/27 04:23:33;;;;;;;0.77;0.52;;;10.30;76.00;;;13.69;60.14;101295.50;4984502;28;96869;-67
2021/05/27 04:26:03;;;;;;;0.65;0.65;;;10.30;76.00;;;13.68;60.38;101302.00;4986537;28;97928;-67
2021/05/27 04:28:32;;;;;;;2.95;0.88;;;10.30;76.00;;;13.70;60.13;101302.50;4989064;28;97667;-68
2021/05/27 04:31:09;;;;;;;0.30;0.30;;;10.30;76.00;;;13.63;60.57;101302.91;4986994;28;96977;-67
2021/05/27 04:33:40;;;;;;;0.22;0.22;;;10.30;76.00;;;13.60;60.95;101303.53;4985686;28;96922;-67
2021/05/27 04:36:10;;;;;;;2.83;0.68;;;10.30;76.10;;;13.66;60.38;101312.28;4986149;28;98297;-67
2021/05/27 04:38:39;;;;;;;0.17;0.17;;;10.30;76.10;;;13.67;60.22;101309.31;4969738;28;97882;-67
2021/05/27 04:41:08;;;;;;;0.38;0.38;;;10.30;76.10;;;13.72;60.33;101311.88;4987452;28;97193;-67
2021/05/27 04:43:38;;;;;;;0.68;0.50;;;10.30;76.10;;;13.75;60.09;101313.13;4985309;28;96989;-67
2021/05/27 04:46:08;;;;;;;2.05;0.90;;;10.30;76.10;;;13.75;60.45;101313.94;4985698;28;97850;-67
2021/05/27 04:48:38;;;;;;;0.10;0.10;;;10.40;76.10;;;13.81;60.27;101310.00;4987193;28;97443;-68
2021/05/27 04:51:06;;;;;;;1.02;0.70;;;10.40;76.10;;;13.83;60.39;101317.78;4986717;28;97274;-67
2021/05/27 04:53:34;;;;;;;0.10;0.10;;;10.40;76.10;;;13.87;60.42;101321.44;4985922;28;96929;-67
2021/05/27 04:56:05;;;;;;;0.65;0.65;;;10.40;76.10;;;13.81;60.42;101320.78;4985824;28;97871;-67
2021/05/27 04:58:34;;;;;;;0.20;0.20;;;10.40;76.10;;;13.83;60.62;101323.19;4988496;28;97877;-67
2021/05/27 05:01:04;;;;;;;0.20;0.20;;;10.50;76.00;;;13.86;60.61;101333.34;4985623;28;96758;-67
2021/05/27 05:03:33;;;;;;;0.50;0.47;;;10.50;76.10;;;13.88;60.50;101329.22;4981902;28;96964;-68
2021/05/27 05:06:04;;;;;;;0.20;0.20;;;10.50;76.00;;;13.90;60.46;101329.69;4981435;28;98034;-68
2021/05/27 05:08:32;;;;;;;0.68;0.47;;;10.50;76.00;;;13.92;60.43;101337.47;4984206;28;97623;-67
2021/05/27 05:11:00;;;;;;;0.10;0.10;;;10.50;76.00;;;13.96;60.79;101336.56;4984937;28;97086;-67
2021/05/27 05:13:31;;;;;;;0.13;0.13;;;10.60;76.00;;;14.05;60.29;101348.94;4988615;28;96863;-67
2021/05/27 05:15:59;;;;;;;0.55;0.32;;;10.60;76.00;;;14.09;60.24;101349.91;5012808;28;97153;-67
2021/05/27 05:18:29;;;;;;;0.45;0.45;;;10.60;76.10;;;14.15;60.28;101347.94;4989060;28;97683;-67
2021/05/27 05:20:58;;;;;;;5.00;0.68;;;10.70;76.10;;;14.20;60.18;101339.69;4987442;28;96836;-68
2021/05/27 05:23:27;;;;;;;0.20;0.20;;;10.70;76.10;;;14.23;60.08;101350.66;4985502;28;97205;-67
2021/05/27 05:25:55;;;;;;;0.30;0.30;;;10.80;76.10;;;14.26;60.32;101343.84;5001476;28;97410;-67
2021/05/27 05:28:23;;;;;;;1.95;0.25;;;10.80;76.10;;;14.30;60.16;101344.84;4966820;28;97778;-67
2021/05/27 05:30:52;;;;;;;2.60;1.20;;;10.90;76.00;;;14.27;60.33;101348.16;4983374;28;96810;-67
2021/05/27 05:33:20;;;;;;;0.08;0.08;;;10.90;76.00;;;14.28;60.55;101355.13;5000922;28;97388;-68
2021/05/27 05:35:49;;;;;;;0.40;0.30;;;10.90;75.90;;;14.26;60.56;101351.94;4987386;28;96857;-67
2021/05/27 05:38:18;;;;;;;0.10;0.10;;;10.90;76.00;;;14.30;60.39;101351.00;4987198;28;96810;-67
2021/05/27 05:40:46;;;;;;;0.25;0.25;;;10.90;75.90;;;14.26;60.86;101351.94;4986344;28;96836;-68
2021/05/27 05:43:15;;;;;;;0.03;0.03;;;10.90;75.90;;;14.27;60.63;101350.84;4986771;28;96911;-68
2021/05/27 05:45:43;;;;;;;0.57;0.57;;;10.90;75.90;;;14.28;60.79;101350.53;4981756;28;100202;-68
2021/05/27 05:48:11;;;;;;;0.63;0.43;;;11.00;75.90;;;14.30;60.70;101351.00;4985415;28;97495;-67
2021/05/27 05:50:46;;;;;;;14.25;0.57;;;11.00;76.00;;;14.31;60.92;101360.69;4984784;28;96815;-68
2021/05/27 05:53:18;;;;;;;0.90;0.38;;;11.00;76.00;;;14.28;60.83;101363.22;4986725;28;96928;-68
2021/05/27 05:55:49;;;;;;;5.60;0.37;;;11.00;75.90;;;14.30;60.71;101355.63;4989330;28;97868;-68
2021/05/27 05:58:19;;;;;;;0.45;0.45;;;11.00;76.00;;;14.29;60.94;101360.19;4987914;28;98371;-68
2021/05/27 06:00:47;;;;;;;0.15;0.15;;;11.00;76.00;;;14.33;60.65;101361.16;5005439;28;97354;-68
2021/05/27 06:03:16;;;;;;;0.20;0.20;;;11.00;76.00;;;14.33;61.16;101368.47;4991112;28;96968;-67
2021/05/27 06:06:22;;;;;;;0.20;0.20;;;11.00;76.00;;;14.34;60.86;101378.16;4989846;28;98520;-67
2021/05/27 06:09:14;;;;;;;0.00;0.00;;;11.00;76.60;;;14.32;61.03;101378.44;4987749;28;97837;-67
2021/05/27 06:11:43;;;;;;;0.05;0.05;;;11.00;76.00;;;14.32;61.01;101378.44;5004637;28;96792;-67
2021/05/27 06:14:12;;;;;;;0.00;0.00;;;11.00;76.00;;;14.33;60.67;101377.34;4986526;28;97080;-68
2021/05/27 06:16:40;;;;;;;0.00;0.00;;;11.00;76.00;;;14.38;60.59;101377.19;5009845;28;98066;-68
2021/05/27 06:19:09;;;;;;;0.25;0.25;;;11.00;76.00;;;14.39;60.56;101378.78;4985944;28;97838;-67
2021/05/27 06:21:42;;;;;;;;;;;11.00;76.10;;;14.37;60.77;101381.00;4954332;28;97233;-68
2021/05/27 06:24:21;;;;;;;0.10;0.10;;;11.00;76.10;;;14.32;60.88;101375.75;4970692;28;96809;-67
2021/05/27 06:26:49;;;;;;;0.93;0.88;;;11.00;76.00;;;14.22;60.83;101381.41;4987970;28;98424;-67
2021/05/27 06:29:17;;;;;;;0.20;0.20;;;11.00;76.00;;;14.23;61.15;101383.00;4983965;28;97710;-67
2021/05/27 06:31:47;;;;;;;2.30;0.32;;;11.00;76.10;;;14.25;61.24;101393.47;4985573;28;97192;-67
2021/05/27 06:34:16;;;;;;;0.10;0.10;;;11.00;76.10;;;14.22;61.07;101386.00;4990242;28;97218;-69
2021/05/27 06:36:44;;;;;;;0.40;0.40;;;11.00;76.10;;;14.22;61.14;101386.81;4989887;28;98269;-67
2021/05/27 06:39:13;;;;;;;0.20;0.20;;;11.00;76.20;;;14.23;60.83;101393.78;4989455;28;97636;-68
2021/05/27 06:41:42;;;;;;;3.83;0.98;;;10.90;76.20;;;14.26;60.96;101395.88;4969709;28;97312;-67
2021/05/27 06:44:10;;;;;;;0.30;0.30;;;10.90;76.20;;;14.24;61.21;101394.56;4985107;28;96915;-68
2021/05/27 06:46:39;;;;;;;4.05;0.90;;;10.90;76.20;;;14.29;60.90;101403.34;4984396;28;98291;-68
2021/05/27 06:49:07;;;;;;;1.02;0.50;;;10.90;76.20;;;14.34;60.85;101402.41;4971268;28;97909;-68
2021/05/27 06:51:35;;;;;;;1.98;1.65;;;10.90;76.20;;;14.38;60.76;101406.84;5003904;28;97064;-67
2021/05/27 06:54:10;;;;;;;0.30;0.30;;;11.00;76.30;;;14.29;61.03;101403.34;4971107;28;96983;-68
2021/05/27 06:56:39;;;;;;;0.60;0.60;;;11.00;76.30;;;14.37;60.71;101405.25;4989914;28;97926;-68
2021/05/27 06:59:08;;;;;;;0.10;0.10;;;11.00;76.30;;;14.37;60.63;101410.66;4988825;28;97243;-68
2021/05/27 07:01:36;;;;;;;4.68;1.05;;;11.10;76.40;;;14.40;61.49;101412.72;4987435;28;97912;-67
2021/05/27 07:04:05;;;;;;;0.73;0.65;;;11.10;76.30;;;14.43;60.96;101412.13;4982467;28;96819;-67
2021/05/27 07:06:33;;;;;;;0.30;0.30;;;11.10;76.30;;;14.45;60.34;101414.50;4989329;28;98022;-67
2021/05/27 07:09:03;;;;;;;0.10;0.10;;;11.10;76.30;;;14.48;60.97;101417.38;4990150;28;97992;-68
2021/05/27 07:11:32;;;;;;;0.57;0.52;;;11.10;76.30;;;14.46;60.98;101425.00;4984913;28;97418;-67
2021/05/27 07:14:00;;;;;;;0.32;0.32;;;11.10;76.20;;;14.46;60.90;101418.78;4988489;28;96977;-68
2021/05/27 07:16:32;;;;;;;0.63;0.63;;;11.10;76.20;;;14.43;60.70;101427.50;4986631;28;98169;-68
2021/05/27 07:19:01;;;;;;;0.17;0.17;;;11.10;76.30;;;14.37;61.04;101424.13;5001557;28;100687;-68
2021/05/27 07:21:32;;;;;;;0.10;0.10;;;11.10;76.30;;;14.36;61.10;101421.75;4990211;28;96992;-67
2021/05/27 07:24:00;;;;;;;0.98;0.93;;;11.10;76.30;;;14.35;61.07;101415.56;4988922;28;97034;-68
2021/05/27 07:26:30;;;;;;;0.10;0.10;;;11.10;76.30;;;14.35;60.80;101418.25;4985824;28;97090;-68
2021/05/27 07:29:00;;;;;;;0.22;0.22;;;11.10;76.40;;;14.35;61.14;101428.25;4969316;28;97760;-69
2021/05/27 07:31:33;;;;;;;0.82;0.52;;;11.00;76.30;;;14.39;60.95;101423.84;4984870;28;96887;-67
2021/05/27 07:34:05;;;;;;;0.25;0.25;;;11.00;76.30;;;14.42;61.24;101425.91;4986463;28;96911;-67
2021/05/27 07:36:33;;;;;;;0.68;0.45;;;11.00;76.40;;;14.44;60.73;101435.28;4986313;28;98289;-67
2021/05/27 07:39:03;;;;;;;0.98;0.40;;;11.10;76.40;;;14.46;60.78;101433.09;4985750;28;97762;-67
2021/05/27 07:41:32;;;;;;;0.30;0.30;;;11.10;76.50;;;14.47;60.92;101437.38;4969252;28;97152;-68
2021/05/27 07:44:02;;;;;;;2.25;0.73;;;11.10;76.40;;;14.48;60.82;101438.97;4983169;28;97476;-67
2021/05/27 07:46:36;;;;;;;1.40;1.02;;;11.10;76.50;;;14.48;61.12;101444.34;5018161;28;101388;-68
2021/05/27 07:49:07;;;;;;;3.28;1.45;;;11.10;76.40;;;14.47;60.79;101448.16;4988755;28;98049;-68
2021/05/27 07:51:36;;;;;;;1.23;0.52;;;11.10;76.40;;;14.42;60.90;101434.81;4985993;28;100202;-69
2021/05/27 07:54:05;;;;;;;0.32;0.32;;;11.10;76.40;;;14.45;61.19;101446.88;4988304;28;96908;-68
2021/05/27 07:56:33;;;;;;;2.17;1.10;;;11.10;76.40;;;14.37;61.19;101453.00;4984797;28;98133;-68
2021/05/27 07:59:02;;;;;;;0.22;0.22;;;11.10;76.40;;;14.42;61.36;101453.69;4986816;28;96943;-68
2021/05/27 08:01:30;;;;;;;0.00;0.00;;;11.10;76.50;;;14.40;61.49;101458.56;4987102;28;100092;-68
2021/05/27 08:03:59;;;;;;;0.05;0.05;;;11.10;76.50;;;14.40;60.59;101453.16;4990011;28;97201;-68
2021/05/27 08:06:34;;;;;;;1.55;0.20;;;11.10;76.50;;;14.41;61.20;101453.97;4992677;28;96890;-68
2021/05/27 08:09:07;;;;;;;0.60;0.60;;;11.10;76.50;;;14.44;61.05;101464.16;4988987;28;96753;-68
2021/05/27 08:11:36;;;;;;;;;;;11.10;76.50;;;14.47;60.96;101463.53;4990262;28;96850;-68
2021/05/27 08:14:05;;;;;;;0.10;0.10;;;11.10;76.70;;;14.49;60.93;101458.63;4987983;28;97411;-68
2021/05/27 08:16:34;;;;;;;0.00;0.00;;;11.10;76.60;;;14.53;61.04;101464.97;5017035;28;97796;-69
2021/05/27 08:19:06;;;;;;;0.30;0.30;;;11.10;76.60;;;14.58;61.02;101454.88;4986012;28;97647;-68
2021/05/27 08:21:34;;;;;;;0.20;0.20;;;11.20;76.60;;;14.69;60.44;101466.97;4969982;28;99907;-68
2021/05/27 08:24:05;;;;;;;0.63;0.43;;;11.20;76.60;;;14.72;60.37;101452.88;4985717;28;96956;-68
2021/05/27 08:26:34;;;;;;;1.02;0.10;;;11.30;76.50;;;14.77;60.67;101463.53;4988420;28;96845;-68
2021/05/27 08:29:04;;;;;;;0.10;0.10;;;11.30;76.50;;;14.77;60.87;101457.31;4988755;28;97397;-68
2021/05/27 08:31:38;;;;;;;2.75;0.40;;;11.40;76.50;;;14.77;61.10;101468.91;4985448;28;97059;-67
2021/05/27 08:34:08;;;;;;;0.00;0.00;;;11.40;76.50;;;14.84;61.29;101468.44;4986420;28;97641;-66
2021/05/27 08:36:38;;;;;;;0.55;0.55;;;11.50;76.50;;;14.97;60.69;101475.66;5003546;28;97404;-66
2021/05/27 08:39:13;;;;;;;0.30;0.30;;;11.50;76.60;;;15.13;60.70;101466.00;4988578;28;98713;-66
2021/05/27 08:41:41;;;;;;;3.30;0.32;;;11.60;76.50;;;15.14;60.59;101468.41;4985430;28;97163;-67
2021/05/27 08:44:10;;;;;;;0.85;0.35;;;11.70;76.50;;;15.22;60.63;101470.31;4985920;28;97189;-66
2021/05/27 08:46:38;;;;;;;0.40;0.40;;;11.80;76.50;;;15.33;60.62;101470.84;4983594;28;97939;-67
2021/05/27 08:49:16;;;;;;;0.05;0.05;;;11.80;76.40;;;15.48;60.50;101473.91;4985955;28;97024;-67
2021/05/27 08:51:44;;;;;;;0.38;0.38;;;11.90;76.40;;;15.51;60.39;101470.56;4984831;28;97911;-66
2021/05/27 08:54:14;;;;;;;0.32;0.22;;;12.00;76.40;;;15.50;60.62;101479.00;4965631;28;97097;-67
2021/05/27 08:56:42;;;;;;;1.42;0.95;;;12.10;76.30;;;15.48;61.12;101484.69;4985134;28;98385;-67
2021/05/27 08:59:10;;;;;;;0.40;0.13;;;12.20;76.20;;;15.41;60.62;101478.97;4987014;28;98012;-66
2021/05/27 09:02:05;;;;;;;0.32;0.32;;;12.20;76.20;;;15.43;61.49;101473.25;4984431;28;96962;-66
2021/05/27 09:04:38;;;;;;;0.30;0.30;;;12.10;76.10;;;15.43;60.68;101479.47;5015798;28;96870;-68
2021/05/27 09:07:07;;;;;;;0.15;0.15;;;12.10;76.10;;;15.44;60.92;101483.75;4969580;28;97231;-66
2021/05/27 09:09:53;;;;;;;0.70;0.52;;;12.10;76.20;;;15.39;61.37;101486.59;4985944;28;97307;-67
2021/05/27 09:12:31;;;;;;;0.73;0.68;;;12.10;76.20;;;15.36;61.27;101491.81;4982397;28;97504;-66
2021/05/27 09:15:06;;;;;;;0.20;0.20;;;12.10;76.20;;;15.33;61.62;101498.66;4985278;28;97146;-67
2021/05/27 09:17:46;;;;;;;0.10;0.10;;;12.10;76.20;;;15.33;61.39;101492.47;4983322;28;97655;-67
2021/05/27 09:20:21;;;;;;;0.10;0.03;;;12.10;76.30;;;15.27;61.55;101497.16;4983243;28;97889;-66
2021/05/27 09:23:10;;;;;;;0.28;0.20;;;12.10;76.30;;;15.24;61.53;101499.72;4986017;28;96793;-66
2021/05/27 09:25:41;;;;;;;5.80;0.98;;;12.10;76.30;;;15.14;61.75;101500.78;4987187;28;96818;-66
2021/05/27 09:28:18;;;;;;;4.78;0.95;;;12.00;76.20;;;15.08;61.68;101512.03;4985951;28;98151;-66
2021/05/27 09:30:51;;;;;;;1.27;0.30;;;12.00;76.30;;;15.05;62.38;101513.47;4986258;28;97638;-67
2021/05/27 09:33:30;;;;;;;2.60;1.17;;;11.90;76.40;;;15.02;61.78;101507.91;4986159;28;96863;-67
2021/05/27 09:36:08;;;;;;;0.75;0.75;;;11.90;76.40;;;15.02;61.66;101510.59;4985999;28;97228;-66
2021/05/27 09:38:40;;;;;;;0.30;0.30;;;11.90;76.60;;;15.05;61.72;101518.88;5002511;28;98162;-67
2021/05/27 09:41:18;;;;;;;0.80;0.32;;;11.90;76.70;;;15.06;62.07;101519.66;4985335;28;97122;-66
2021/05/27 09:43:51;;;;;;;0.60;0.60;;;11.90;76.70;;;15.09;61.93;101527.13;4986305;28;97100;-66
2021/05/27 09:46:21;;;;;;;1.88;0.57;;;11.90;76.70;;;15.08;62.02;101518.25;4985109;28;96915;-67
2021/05/27 09:49:08;;;;;;;3.35;0.30;;;11.90;76.70;;;15.09;62.49;101530.63;5018709;28;98173;-67
2021/05/27 09:51:38;;;;;;;1.15;0.75;;;11.90;76.80;;;15.08;61.48;101533.63;4970664;28;98122;-66
2021/05/27 09:54:07;;;;;;;0.43;0.43;;;11.90;76.70;;;15.04;62.24;101529.97;4983324;28;98054;-66
2021/05/27 09:56:38;;;;;;;2.38;1.10;;;11.90;76.70;;;15.02;62.24;101533.00;4983582;28;96872;-66
2021/05/27 09:59:11;;;;;;;0.47;0.47;;;11.90;76.70;;;14.99;62.30;101538.22;4987106;28;97835;-66
2021/05/27 10:02:12;;;;;;;1.20;0.40;;;11.80;76.60;;;15.03;62.41;101547.28;4967876;28;100013;-66
2021/05/27 10:05:06;;;;;;;0.08;0.08;;;11.80;76.70;;;15.12;61.93;101545.41;4984273;28;97132;-67
2021/05/27 10:07:40;;;;;;;1.02;0.85;;;11.90;76.90;;;15.23;62.09;101547.50;4984072;28;97017;-67
2021/05/27 10:10:31;;;;;;;0.08;0.08;;;11.90;76.90;;;15.41;61.44;101549.19;4986070;28;97888;-67
2021/05/27 10:12:59;;;;;;;1.48;0.63;;;12.00;77.00;;;15.52;60.84;101550.47;4984401;28;97177;-66
2021/05/27 10:15:30;;;;;;;0.80;0.75;;;12.00;76.90;;;15.54;60.59;101552.88;4985153;28;97236;-66
2021/05/27 10:18:03;;;;;;;0.40;0.40;;;12.00;76.70;;;15.59;61.22;101556.22;4985930;28;97137;-66
2021/05/27 10:20:33;;;;;;;1.02;0.82;;;12.10;76.80;;;15.62;60.49;101544.81;4984150;28;96900;-67
2021/05/27 10:23:07;;;;;;;1.70;0.35;;;12.20;76.90;;;15.73;61.04;101551.50;4985520;28;97987;-66
2021/05/27 10:25:36;;;;;;;6.03;1.55;;;12.20;76.90;;;15.78;60.74;101548.63;4982835;28;96976;-67
2021/05/27 10:28:11;;;;;;;5.95;2.45;;;12.40;76.90;;;15.88;60.98;101551.81;4983649;28;97667;-67
2021/05/27 10:30:47;;;;;;;0.20;0.17;;;12.40;76.80;;;16.07;61.03;101562.31;4965087;28;101221;-66
2021/05/27 10:33:19;;;;;;;0.40;0.40;;;12.50;76.80;;;16.18;60.74;101552.78;4985909;28;97926;-67
2021/05/27 10:35:55;;;;;;;1.77;0.93;;;12.60;76.70;;;16.24;60.54;101556.94;4982966;28;97426;-67
2021/05/27 10:38:57;;;;;;;0.80;0.80;;;12.70;76.60;;;16.30;60.18;101555.66;4985501;28;97830;-67